TimePST,TemperatureF,Dew PointF,Humidity,Sea Level PressureIn,VisibilityMPH,Wind Direction,Wind SpeedMPH,Gust SpeedMPH,PrecipitationIn,Events,Conditions,WindDirDegrees,DateUTC
12:15 AM,24.8,19.4,80,30.18,10.0,Calm,Calm,-,N/A,,Overcast,0,2013-01-29 08:15:00
12:35 AM,26.6,19.4,74,30.17,10.0,SSW,4.6,-,N/A,,Overcast,210,2013-01-29 08:35:00
12:55 AM,26.6,19.4,74,30.17,10.0,SSE,3.5,-,N/A,,Overcast,150,2013-01-29 08:55:00
1:15 AM,26.6,19.4,74,30.17,10.0,East,8.1,-,N/A,,Overcast,80,2013-01-29 09:15:00
1:35 AM,28.4,19.4,69,30.18,10.0,WNW,3.5,-,N/A,,Overcast,290,2013-01-29 09:35:00
1:55 AM,28.4,19.4,69,30.18,10.0,West,3.5,-,N/A,,Overcast,280,2013-01-29 09:55:00
2:15 AM,28.4,19.4,69,30.18,10.0,Calm,Calm,-,N/A,,Overcast,0,2013-01-29 10:15:00
2:35 AM,26.6,21.2,80,30.18,10.0,ESE,3.5,-,N/A,,Overcast,110,2013-01-29 10:35:00
2:55 AM,26.6,21.2,80,30.19,10.0,Calm,Calm,-,N/A,,Overcast,0,2013-01-29 10:55:00
3:15 AM,26.6,21.2,80,30.18,10.0,WSW,3.5,-,N/A,,Overcast,250,2013-01-29 11:15:00
3:35 AM,28.4,19.4,69,30.19,10.0,NNW,3.5,-,N/A,,Overcast,330,2013-01-29 11:35:00
3:55 AM,28.4,21.2,74,30.18,10.0,Calm,Calm,-,N/A,,Overcast,0,2013-01-29 11:55:00
4:15 AM,26.6,21.2,80,30.19,10.0,Calm,Calm,-,N/A,,Overcast,0,2013-01-29 12:15:00
4:35 AM,28.4,19.4,69,30.19,10.0,Calm,Calm,-,N/A,,Overcast,0,2013-01-29 12:35:00
4:55 AM,26.6,23.0,86,30.20,10.0,Calm,Calm,-,N/A,,Overcast,0,2013-01-29 12:55:00
5:15 AM,28.4,19.4,69,30.20,10.0,Calm,Calm,-,N/A,,Mostly Cloudy,0,2013-01-29 13:15:00
5:35 AM,26.6,19.4,74,30.21,10.0,ESE,4.6,-,N/A,,Mostly Cloudy,120,2013-01-29 13:35:00
6:55 AM,26.6,19.4,74,30.23,10.0,Calm,Calm,-,N/A,,Mostly Cloudy,0,2013-01-29 14:55:00
7:45 AM,28.4,21.2,74,30.25,10.0,Calm,Calm,-,N/A,,Mostly Cloudy,0,2013-01-29 15:45:00
8:45 AM,28.4,21.2,74,30.25,10.0,Calm,Calm,-,N/A,,Mostly Cloudy,0,2013-01-29 16:45:00
9:50 AM,32.0,23.0,69,30.30,10.0,Calm,Calm,-,N/A,,Mostly Cloudy,0,2013-01-29 17:50:00
10:45 AM,35.6,23.0,60,30.30,10.0,Calm,Calm,-,N/A,,Mostly Cloudy,0,2013-01-29 18:45:00
11:45 AM,39.2,24.8,56,30.30,10.0,NE,6.9,-,N/A,,Mostly Cloudy,50,2013-01-29 19:45:00
12:45 PM,41.0,26.6,57,30.29,10.0,NNE,8.1,-,N/A,,Mostly Cloudy,20,2013-01-29 20:45:00
1:45 PM,41.0,26.6,57,30.27,10.0,North,11.5,-,N/A,,Mostly Cloudy,350,2013-01-29 21:45:00
2:45 PM,41.0,26.6,57,30.29,10.0,North,10.4,19.6,N/A,,Mostly Cloudy,360,2013-01-29 22:45:00
3:45 PM,41.0,26.6,57,30.30,10.0,North,13.8,19.6,N/A,,Mostly Cloudy,360,2013-01-29 23:45:00
4:45 PM,39.2,26.6,61,30.32,10.0,NNE,6.9,-,N/A,,Mostly Cloudy,30,2013-01-30 00:45:00
4:55 PM,39.2,26.6,61,30.33,10.0,ENE,12.7,17.3,N/A,,Overcast,70,2013-01-30 00:55:00
5:15 PM,39.2,26.6,61,30.33,10.0,NE,11.5,21.9,N/A,,Overcast,50,2013-01-30 01:15:00
5:35 PM,39.2,26.6,61,30.34,10.0,ENE,5.8,-,N/A,,Mostly Cloudy,70,2013-01-30 01:35:00
5:55 PM,37.4,26.6,65,30.35,10.0,NE,5.8,-,N/A,,Mostly Cloudy,40,2013-01-30 01:55:00
6:15 PM,37.4,26.6,65,30.37,10.0,Calm,Calm,-,N/A,,Mostly Cloudy,0,2013-01-30 02:15:00
6:35 PM,37.4,26.6,65,30.36,10.0,NNE,11.5,17.3,N/A,,Scattered Clouds,20,2013-01-30 02:35:00
6:55 PM,35.6,26.6,70,30.37,10.0,North,8.1,-,N/A,,Clear,350,2013-01-30 02:55:00
7:15 PM,35.6,26.6,70,30.38,10.0,North,4.6,-,N/A,,Clear,350,2013-01-30 03:15:00
7:35 PM,35.6,26.6,70,30.38,10.0,NW,4.6,-,N/A,,Mostly Cloudy,320,2013-01-30 03:35:00
7:55 PM,35.6,26.6,70,30.39,10.0,NNW,6.9,-,N/A,,Overcast,330,2013-01-30 03:55:00
8:15 PM,32.0,26.6,80,30.39,10.0,NE,4.6,-,N/A,,Overcast,40,2013-01-30 04:15:00
8:35 PM,35.6,26.6,70,30.39,10.0,North,4.6,-,N/A,,Mostly Cloudy,360,2013-01-30 04:35:00
8:55 PM,32.0,26.6,80,30.39,10.0,South,6.9,-,N/A,,Partly Cloudy,170,2013-01-30 04:55:00
9:15 PM,30.2,26.6,86,30.38,10.0,East,3.5,-,N/A,,Partly Cloudy,100,2013-01-30 05:15:00
9:35 PM,30.2,26.6,86,30.39,10.0,ESE,3.5,-,N/A,,Scattered Clouds,110,2013-01-30 05:35:00
9:55 PM,32.0,26.6,80,30.39,10.0,East,5.8,-,N/A,,Mostly Cloudy,100,2013-01-30 05:55:00
10:15 PM,30.2,26.6,86,30.39,10.0,Calm,Calm,-,N/A,,Mostly Cloudy,0,2013-01-30 06:15:00
10:35 PM,28.4,24.8,86,30.40,10.0,SW,4.6,-,N/A,,Mostly Cloudy,230,2013-01-30 06:35:00
10:55 PM,30.2,26.6,86,30.41,10.0,East,4.6,-,N/A,,Overcast,100,2013-01-30 06:55:00
11:15 PM,28.4,24.8,86,30.41,10.0,Calm,Calm,-,N/A,,Scattered Clouds,0,2013-01-30 07:15:00
11:35 PM,28.4,24.8,86,30.41,10.0,SE,5.8,-,N/A,,Clear,130,2013-01-30 07:35:00
11:55 PM,26.6,24.8,93,30.41,10.0,South,3.5,-,N/A,,Clear,190,2013-01-30 07:55:00